MiSS Callie Cate — WDF2692 — position and weather

sailwx.info

Track history (hours):
 
Tides and Currents Weather Stations Pressure Air Temp Water Temp Dewpoint Dewpoint Depression Visibility Wind Speed Wind Dir Waves Ship Positions

MiSS Callie Cate

Owner: Marquette Transportation Company Offshore LLC, Jefferson, LA. More information available from US FCC via Universal Licensing System and Coast Guard Vessel Documentation Center.

Last reported at 2018-Jul-22 02:13 UTC. Time now 2018-Jul-22 02:59 UTC.
Position N 29°40' W 091°06'.

Length 26 m; draft 12 m.

Type: Towing. MMSI: 367430790.

Date/timePositionNaut miles runAvg speedWind from/ knotsBaromVisibWave heightAir tempDewpointWater temp
2018-Jul-22 02:13N 29°40' W 091°06'0 0.0
2018-Jul-22 01:57N 29°40' W 091°06'1 0.1
2018-Jul-21 08:38N 29°39' W 091°07'0 0.0
2018-Jul-21 07:49N 29°39' W 091°07'0 0.0
2018-Jul-21 06:58N 29°39' W 091°07'1 2.2
2018-Jul-21 06:29N 29°38' W 091°07'1 2.8
2018-Jul-21 06:00N 29°37' W 091°06'4 7.3
2018-Jul-21 05:29N 29°36' W 091°11'4 8.3
2018-Jul-21 05:00N 29°33' W 091°13'6 4.8
2018-Jul-21 03:48N 29°38' W 091°14'4 4.6
2018-Jul-21 03:00N 29°35' W 091°14'3 5.4
2018-Jul-21 02:30N 29°32' W 091°16'3 5.7
2018-Jul-21 02:00N 29°30' W 091°16'4 5.5
2018-Jul-21 01:18N 29°27' W 091°19'2 6.0
2018-Jul-21 01:00N 29°25' W 091°20'3 6.1
2018-Jul-21 00:30N 29°23' W 091°23'3 5.4
2018-Jul-20 23:52N 29°20' W 091°25'2 4.7
2018-Jul-20 23:30N 29°19' W 091°26'3 5.4
2018-Jul-20 22:58N 29°17' W 091°28'2 5.1
2018-Jul-20 22:30N 29°15' W 091°30'3 5.6
2018-Jul-20 21:59N 29°12' W 091°32'  
Track history (hours):
 
Tides and Currents Weather Stations Pressure Air Temp Water Temp Dewpoint Dewpoint Depression Visibility Wind Speed Wind Dir Waves Ship Positions

MiSS Callie Cate

Owner: Marquette Transportation Company Offshore LLC, Jefferson, LA. More information available from US FCC via Universal Licensing System and Coast Guard Vessel Documentation Center.

Last reported at 2018-Jul-22 02:13 UTC. Time now 2018-Jul-22 02:59 UTC.
Position N 29°40' W 091°06'.

Length 26 m; draft 12 m.

Type: Towing. MMSI: 367430790.

Date/timePositionNaut miles runAvg speedWind from/ knotsBaromVisibWave heightAir tempDewpointWater temp
2018-Jul-22 02:13N 29°40' W 091°06'0 0.0
2018-Jul-22 01:57N 29°40' W 091°06'1 0.1
2018-Jul-21 08:38N 29°39' W 091°07'0 0.0
2018-Jul-21 07:49N 29°39' W 091°07'0 0.0
2018-Jul-21 06:58N 29°39' W 091°07'1 2.2
2018-Jul-21 06:29N 29°38' W 091°07'1 2.8
2018-Jul-21 06:00N 29°37' W 091°06'4 7.3
2018-Jul-21 05:29N 29°36' W 091°11'4 8.3
2018-Jul-21 05:00N 29°33' W 091°13'6 4.8
2018-Jul-21 03:48N 29°38' W 091°14'4 4.6
2018-Jul-21 03:00N 29°35' W 091°14'3 5.4
2018-Jul-21 02:30N 29°32' W 091°16'3 5.7
2018-Jul-21 02:00N 29°30' W 091°16'4 5.5
2018-Jul-21 01:18N 29°27' W 091°19'2 6.0
2018-Jul-21 01:00N 29°25' W 091°20'3 6.1
2018-Jul-21 00:30N 29°23' W 091°23'3 5.4
2018-Jul-20 23:52N 29°20' W 091°25'2 4.7
2018-Jul-20 23:30N 29°19' W 091°26'3 5.4
2018-Jul-20 22:58N 29°17' W 091°28'2 5.1
2018-Jul-20 22:30N 29°15' W 091°30'3 5.6
2018-Jul-20 21:59N 29°12' W 091°32'  

Dump ship's entire track history